Time;durP1;ratioP1;P1;durP2;ratioP2;P2;SDS_P1;SDS_P2;PMS_P1;PMS_P2;Temp;Humidity;BMP_temperature;BMP_pressure;BME280_temperature;BME280_humidity;BME280_pressure;Samples;Min_cycle;Max_cycle;Signal;HPM_P1;HPM_P2
2023/10/18 00:01:08;;;;;;;8.55;5.22;;;;;;;;;;5036497;28;20606;-79
2023/10/18 00:03:36;;;;;;;10.82;5.47;;;;;;;;;;5037307;28;20037;-80
2023/10/18 00:06:21;;;;;;;11.25;6.15;;;;;;;;;;5035691;28;20044;-80
2023/10/18 00:08:46;;;;;;;11.15;5.95;;;;;;;;;;5017165;28;20038;-80
2023/10/18 00:11:13;;;;;;;10.50;5.38;;;;;;;;;;5036457;28;20060;-81
2023/10/18 00:13:38;;;;;;;13.73;6.70;;;;;;;;;;5037209;28;20588;-81
2023/10/18 00:16:06;;;;;;;15.50;7.25;;;;;;;;;;5035834;28;20037;-79
2023/10/18 00:18:35;;;;;;;11.73;6.30;;;;;;;;;;5036535;28;20038;-80
2023/10/18 00:21:02;;;;;;;9.23;5.15;;;;;;;;;;5035780;28;20056;-80
2023/10/18 00:23:30;;;;;;;12.38;5.43;;;;;;;;;;5034989;28;20037;-81
2023/10/18 00:25:56;;;;;;;10.18;5.30;;;;;;;;;;5036119;28;20395;-81
2023/10/18 00:28:22;;;;;;;9.27;4.93;;;;;;;;;;5036481;28;20037;-80
2023/10/18 00:30:49;;;;;;;10.38;5.53;;;;;;;;;;5052081;28;20037;-80
2023/10/18 00:33:17;;;;;;;9.02;5.05;;;;;;;;;;5034898;28;20411;-81
2023/10/18 00:35:43;;;;;;;11.50;4.80;;;;;;;;;;5015085;28;20103;-80
2023/10/18 00:38:14;;;;;;;9.10;4.75;;;;;;;;;;5035947;28;20041;-81
2023/10/18 00:40:40;;;;;;;10.88;5.10;;;;;;;;;;5035067;28;20113;-81
2023/10/18 00:43:09;;;;;;;11.30;4.97;;;;;;;;;;5034804;28;20160;-81
2023/10/18 00:45:40;;;;;;;8.90;4.80;;;;;;;;;;5035408;28;20049;-81
2023/10/18 00:48:06;;;;;;;8.23;4.65;;;;;;;;;;5035342;28;20045;-81
2023/10/18 00:50:37;;;;;;;7.15;4.28;;;;;;;;;;5052049;28;20510;-81
2023/10/18 00:53:02;;;;;;;8.05;4.35;;;;;;;;;;5051130;28;20045;-80
2023/10/18 00:55:30;;;;;;;6.55;4.32;;;;;;;;;;5035707;28;20024;-81
2023/10/18 00:57:58;;;;;;;7.15;4.00;;;;;;;;;;5024111;28;20034;-80
2023/10/18 01:00:24;;;;;;;6.80;3.88;;;;;;;;;;5034476;28;20056;-80
2023/10/18 01:02:53;;;;;;;7.10;4.47;;;;;;;;;;5034833;28;20044;-81
2023/10/18 01:05:19;;;;;;;7.75;4.25;;;;;;;;;;5032215;28;20041;-80
2023/10/18 01:07:48;;;;;;;7.88;4.50;;;;;;;;;;5050647;28;20045;-81
2023/10/18 01:10:14;;;;;;;8.05;4.80;;;;;;;;;;5033826;28;20254;-79
2023/10/18 01:12:39;;;;;;;11.80;5.03;;;;;;;;;;5050081;28;20526;-80
2023/10/18 01:15:06;;;;;;;9.38;4.68;;;;;;;;;;5035108;28;20479;-80
2023/10/18 01:17:42;;;;;;;7.43;4.50;;;;;;;;;;5016980;28;20033;-80
2023/10/18 01:20:20;;;;;;;9.70;5.55;;;;;;;;;;5032952;28;20040;-79
2023/10/18 01:22:46;;;;;;;9.88;4.60;;;;;;;;;;5049071;28;20048;-81
2023/10/18 01:25:13;;;;;;;9.73;5.35;;;;;;;;;;5033554;28;20071;-80
2023/10/18 01:27:39;;;;;;;7.95;4.22;;;;;;;;;;5033842;28;20561;-80
2023/10/18 01:30:06;;;;;;;7.50;4.70;;;;;;;;;;5017002;28;20072;-79
2023/10/18 01:32:31;;;;;;;9.77;4.47;;;;;;;;;;5029283;28;20518;-80
2023/10/18 01:34:57;;;;;;;8.95;4.78;;;;;;;;;;5031087;28;20025;-80
2023/10/18 01:37:22;;;;;;;10.45;4.68;;;;;;;;;;5035321;28;20375;-80
2023/10/18 01:39:52;;;;;;;8.15;5.13;;;;;;;;;;5046048;28;20025;-80
2023/10/18 01:42:17;;;;;;;7.90;4.75;;;;;;;;;;5040275;28;20069;-80
2023/10/18 01:44:43;;;;;;;11.80;5.32;;;;;;;;;;5035264;28;20057;-80
2023/10/18 01:47:09;;;;;;;9.15;4.97;;;;;;;;;;5034227;28;20052;-80
2023/10/18 01:49:46;;;;;;;12.95;5.95;;;;;;;;;;5034017;28;20048;-79
2023/10/18 01:52:14;;;;;;;12.52;6.03;;;;;;;;;;5034705;28;20041;-81
2023/10/18 01:54:41;;;;;;;11.55;6.13;;;;;;;;;;5050544;28;20025;-81
2023/10/18 01:57:07;;;;;;;13.38;5.53;;;;;;;;;;5035176;28;20116;-80
2023/10/18 01:59:34;;;;;;;12.98;6.18;;;;;;;;;;5038701;28;20526;-81
2023/10/18 02:02:06;;;;;;;11.55;5.82;;;;;;;;;;5033038;28;20128;-80
2023/10/18 02:04:36;;;;;;;12.00;6.15;;;;;;;;;;5016745;28;20079;-80
2023/10/18 02:07:02;;;;;;;14.27;6.13;;;;;;;;;;5050118;28;20041;-80
2023/10/18 02:09:49;;;;;;;15.27;6.65;;;;;;;;;;5032762;28;20029;-80
2023/10/18 02:12:21;;;;;;;12.05;5.97;;;;;;;;;;5032296;28;20060;-80
2023/10/18 02:14:48;;;;;;;11.80;6.00;;;;;;;;;;5033684;28;20030;-80
2023/10/18 02:17:18;;;;;;;11.80;5.85;;;;;;;;;;5032312;28;20057;-80
2023/10/18 02:19:44;;;;;;;9.82;5.03;;;;;;;;;;5032547;28;20064;-80
2023/10/18 02:22:13;;;;;;;11.55;5.35;;;;;;;;;;5045782;28;20041;-79
2023/10/18 02:24:39;;;;;;;9.95;5.30;;;;;;;;;;5033822;28;20034;-79
2023/10/18 02:27:09;;;;;;;10.07;4.90;;;;;;;;;;5049475;28;20491;-80
2023/10/18 02:29:35;;;;;;;8.30;4.55;;;;;;;;;;5032850;28;20128;-80
2023/10/18 02:32:04;;;;;;;11.98;4.95;;;;;;;;;;5032268;28;20134;-80
2023/10/18 02:34:34;;;;;;;7.18;4.20;;;;;;;;;;5032303;28;20037;-81
2023/10/18 02:37:01;;;;;;;6.50;3.90;;;;;;;;;;5034057;28;20488;-80
2023/10/18 02:39:32;;;;;;;7.00;4.00;;;;;;;;;;5033955;28;20192;-79
2023/10/18 02:41:58;;;;;;;6.93;4.00;;;;;;;;;;5030622;28;20045;-79
2023/10/18 02:44:24;;;;;;;7.45;3.53;;;;;;;;;;5016019;28;20033;-79
2023/10/18 02:49:37;;;;;;;6.28;3.50;;;;;;;;;;5049185;28;20040;-81
2023/10/18 02:52:04;;;;;;;6.93;3.22;;;;;;;;;;5015618;28;20029;-80
2023/10/18 02:54:32;;;;;;;6.38;3.40;;;;;;;;;;5030025;28;20050;-80
2023/10/18 02:56:59;;;;;;;8.18;3.58;;;;;;;;;;5031341;28;20065;-81
2023/10/18 02:59:27;;;;;;;6.93;3.80;;;;;;;;;;5034403;28;20045;-81
2023/10/18 03:01:57;;;;;;;10.13;4.75;;;;;;;;;;5039631;28;20061;-80
2023/10/18 03:04:29;;;;;;;6.28;4.07;;;;;;;;;;5032578;28;20030;-79
2023/10/18 03:06:57;;;;;;;6.72;4.20;;;;;;;;;;5032079;28;20049;-79
2023/10/18 03:12:02;;;;;;;6.82;3.83;;;;;;;;;;5031130;28;20060;-80
2023/10/18 03:14:41;;;;;;;7.03;3.97;;;;;;;;;;5031972;28;20029;-79
2023/10/18 03:17:19;;;;;;;5.82;3.70;;;;;;;;;;5032435;28;20034;-80
2023/10/18 03:19:50;;;;;;;9.00;3.88;;;;;;;;;;5048958;28;20088;-80
2023/10/18 03:22:20;;;;;;;5.40;3.60;;;;;;;;;;5029393;28;20033;-80
2023/10/18 03:24:47;;;;;;;5.22;3.30;;;;;;;;;;5052193;28;20037;-80
2023/10/18 03:27:13;;;;;;;8.27;4.47;;;;;;;;;;5035588;28;20033;-80
2023/10/18 03:29:38;;;;;;;5.85;3.92;;;;;;;;;;5037389;28;20034;-80
2023/10/18 03:32:08;;;;;;;5.80;3.70;;;;;;;;;;5035949;28;20033;-77
2023/10/18 03:34:37;;;;;;;5.50;3.40;;;;;;;;;;5035724;28;20026;-77
2023/10/18 03:37:06;;;;;;;5.63;3.35;;;;;;;;;;5051774;28;20095;-80
2023/10/18 03:39:32;;;;;;;6.70;3.80;;;;;;;;;;5051978;28;20033;-80
2023/10/18 03:42:02;;;;;;;8.23;3.75;;;;;;;;;;5051297;28;20399;-80
2023/10/18 03:44:28;;;;;;;5.82;3.47;;;;;;;;;;5050845;28;20376;-79
2023/10/18 03:47:04;;;;;;;5.97;3.78;;;;;;;;;;5019522;28;20037;-80
2023/10/18 03:49:38;;;;;;;5.72;3.40;;;;;;;;;;5031992;28;20065;-80
2023/10/18 03:57:28;;;;;;;6.15;3.78;;;;;;;;;;5048809;28;20038;-79
2023/10/18 03:59:57;;;;;;;;;;;;;;;;;;5036543;28;20061;-80
2023/10/18 04:04:50;;;;;;;5.88;3.97;;;;;;;;;;5054324;28;20099;-80
2023/10/18 04:07:24;;;;;;;6.32;3.70;;;;;;;;;;5018204;28;20483;-80
2023/10/18 04:12:27;;;;;;;5.68;3.10;;;;;;;;;;5033154;28;20093;-80
2023/10/18 04:14:56;;;;;;;5.93;3.10;;;;;;;;;;5050856;28;20450;-80
2023/10/18 04:17:36;;;;;;;7.00;3.20;;;;;;;;;;5034735;28;20045;-80
2023/10/18 04:22:47;;;;;;;4.88;3.05;;;;;;;;;;5037979;28;20487;-80
2023/10/18 04:25:29;;;;;;;5.70;3.22;;;;;;;;;;5034397;28;20029;-79
2023/10/18 04:27:59;;;;;;;7.30;3.30;;;;;;;;;;5035231;28;20096;-79
2023/10/18 04:30:31;;;;;;;5.68;3.20;;;;;;;;;;5036532;28;20040;-80
2023/10/18 04:33:00;;;;;;;5.38;3.15;;;;;;;;;;5031955;28;20033;-80
2023/10/18 04:35:32;;;;;;;5.50;3.35;;;;;;;;;;5051230;28;20033;-80
2023/10/18 04:37:58;;;;;;;6.53;3.53;;;;;;;;;;5034874;28;20040;-80
2023/10/18 04:40:27;;;;;;;5.07;3.55;;;;;;;;;;5034793;28;20037;-80
2023/10/18 04:42:55;;;;;;;5.82;3.40;;;;;;;;;;5047838;28;20525;-80
2023/10/18 04:45:23;;;;;;;6.63;3.25;;;;;;;;;;5050739;28;20033;-79
2023/10/18 04:47:49;;;;;;;4.43;2.92;;;;;;;;;;5051118;28;20037;-80
2023/10/18 04:50:22;;;;;;;5.10;3.40;;;;;;;;;;5035968;28;20120;-80
2023/10/18 04:52:47;;;;;;;8.77;4.53;;;;;;;;;;5050436;28;20518;-80
2023/10/18 04:55:14;;;;;;;8.70;4.38;;;;;;;;;;5035620;28;20034;-79
2023/10/18 04:57:43;;;;;;;7.97;4.75;;;;;;;;;;5033750;28;20048;-80
2023/10/18 05:00:25;;;;;;;9.90;4.40;;;;;;;;;;5166016;22;20040;-80
2023/10/18 05:02:52;;;;;;;7.75;4.45;;;;;;;;;;5069008;28;20051;-79
2023/10/18 05:05:18;;;;;;;7.43;4.07;;;;;;;;;;5060169;28;20430;-79
2023/10/18 05:07:47;;;;;;;9.75;4.57;;;;;;;;;;5064086;28;20032;-78
2023/10/18 05:10:16;;;;;;;9.75;4.60;;;;;;;;;;5061023;28;20154;-78
2023/10/18 05:15:33;;;;;;;7.70;4.80;;;;;;;;;;5066212;28;20071;-79
2023/10/18 05:18:15;;;;;;;6.32;3.05;;;;;;;;;;5060615;28;20040;-79
2023/10/18 05:20:55;;;;;;;4.28;2.83;;;;;;;;;;5070705;28;20028;-78
2023/10/18 05:23:24;;;;;;;6.15;2.63;;;;;;;;;;5070583;28;20090;-78
2023/10/18 05:26:03;;;;;;;3.55;2.58;;;;;;;;;;5058962;28;20127;-78
2023/10/18 05:28:42;;;;;;;3.65;2.60;;;;;;;;;;5077152;28;20068;-78
2023/10/18 05:43:53;;;;;;;4.63;2.38;;;;;;;;;;5071612;28;20033;-78
2023/10/18 05:46:20;;;;;;;4.22;2.80;;;;;;;;;;5060398;28;20494;-77
2023/10/18 05:48:46;;;;;;;4.05;2.90;;;;;;;;;;5077926;28;20116;-78
2023/10/18 05:51:26;;;;;;;4.80;3.15;;;;;;;;;;5055521;28;20124;-78
2023/10/18 05:53:57;;;;;;;4.88;3.22;;;;;;;;;;5064442;28;20082;-78
2023/10/18 05:56:29;;;;;;;5.93;3.95;;;;;;;;;;5057200;28;20406;-78
2023/10/18 06:01:40;;;;;;;19.55;11.13;;;;;;;;;;5081481;28;20042;-78
2023/10/18 06:04:08;;;;;;;20.63;12.18;;;;;;;;;;5069383;28;20465;-78
2023/10/18 06:06:37;;;;;;;21.98;11.38;;;;;;;;;;5069955;28;20694;-78
2023/10/18 06:09:26;;;;;;;20.70;12.02;;;;;;;;;;5062552;28;20040;-78
2023/10/18 06:11:51;;;;;;;9.13;5.47;;;;;;;;;;5064963;28;20058;-78
2023/10/18 06:14:17;;;;;;;8.48;5.38;;;;;;;;;;5071294;28;20033;-79
2023/10/18 06:16:43;;;;;;;9.20;5.55;;;;;;;;;;5068225;28;20119;-78
2023/10/18 06:19:13;;;;;;;12.07;5.60;;;;;;;;;;5080136;28;20073;-79
2023/10/18 06:21:49;;;;;;;9.43;5.05;;;;;;;;;;5064995;28;20059;-78
2023/10/18 06:24:16;;;;;;;9.80;5.85;;;;;;;;;;5055726;28;20049;-79
2023/10/18 06:26:44;;;;;;;10.70;5.65;;;;;;;;;;5068512;28;20738;-78
2023/10/18 06:29:11;;;;;;;8.90;5.53;;;;;;;;;;5064280;28;20413;-79
2023/10/18 06:31:44;;;;;;;10.77;5.75;;;;;;;;;;5059267;28;20032;-79
2023/10/18 06:34:19;;;;;;;10.05;5.93;;;;;;;;;;5052991;28;20402;-77
2023/10/18 06:36:47;;;;;;;9.52;5.65;;;;;;;;;;5068491;28;20056;-80
2023/10/18 06:39:24;;;;;;;10.38;5.95;;;;;;;;;;5061077;28;20044;-78
2023/10/18 06:41:54;;;;;;;7.97;5.43;;;;;;;;;;5063247;28;20098;-77
2023/10/18 06:44:20;;;;;;;8.93;5.13;;;;;;;;;;5068637;28;20039;-78
2023/10/18 06:46:49;;;;;;;9.95;5.32;;;;;;;;;;5065262;28;20409;-78
2023/10/18 06:49:14;;;;;;;9.48;5.20;;;;;;;;;;5063301;28;20037;-78
2023/10/18 06:51:40;;;;;;;8.65;4.53;;;;;;;;;;5060395;28;20417;-78
2023/10/18 06:54:13;;;;;;;6.85;4.20;;;;;;;;;;5056226;28;20025;-78
2023/10/18 06:56:47;;;;;;;8.07;4.55;;;;;;;;;;5061671;28;20041;-77
2023/10/18 06:59:13;;;;;;;7.00;4.13;;;;;;;;;;5069607;28;20090;-79
2023/10/18 07:01:42;;;;;;;6.60;4.55;;;;;;;;;;5065221;28;20040;-78
2023/10/18 07:04:26;;;;;;;7.47;4.60;;;;;;;;;;5069337;28;20066;-78
2023/10/18 07:06:52;;;;;;;8.90;5.10;;;;;;;;;;5071525;28;20453;-79
2023/10/18 07:09:26;;;;;;;10.10;4.40;;;;;;;;;;5071434;28;20037;-79
2023/10/18 07:12:03;;;;;;;5.75;4.13;;;;;;;;;;5064940;28;20124;-79
2023/10/18 07:14:31;;;;;;;6.05;3.78;;;;;;;;;;5076931;28;20029;-79
2023/10/18 07:17:00;;;;;;;4.75;3.47;;;;;;;;;;5060216;28;20382;-78
2023/10/18 07:19:27;;;;;;;4.97;3.75;;;;;;;;;;5060496;28;20045;-79
2023/10/18 07:21:54;;;;;;;4.10;3.17;;;;;;;;;;5064391;28;20043;-80
2023/10/18 07:24:34;;;;;;;4.47;3.50;;;;;;;;;;5069862;28;20082;-80
2023/10/18 07:27:03;;;;;;;5.10;3.72;;;;;;;;;;5074733;28;20048;-80
2023/10/18 07:29:33;;;;;;;4.68;3.42;;;;;;;;;;5072678;28;20032;-80
2023/10/18 07:31:59;;;;;;;5.07;3.22;;;;;;;;;;5065135;28;20064;-78
2023/10/18 07:34:28;;;;;;;4.72;3.38;;;;;;;;;;5064754;28;20021;-80
2023/10/18 07:36:54;;;;;;;4.15;3.30;;;;;;;;;;5058771;28;20052;-79
2023/10/18 07:39:24;;;;;;;4.40;3.28;;;;;;;;;;5072405;28;20043;-79
2023/10/18 07:41:55;;;;;;;4.93;3.50;;;;;;;;;;5063258;28;20040;-79
2023/10/18 07:44:20;;;;;;;5.57;3.55;;;;;;;;;;5074363;28;20087;-80
2023/10/18 07:46:46;;;;;;;5.30;3.60;;;;;;;;;;5073647;28;20016;-79
2023/10/18 07:49:14;;;;;;;3.88;3.20;;;;;;;;;;5072996;28;20068;-80
2023/10/18 07:51:49;;;;;;;4.63;3.17;;;;;;;;;;5062675;28;20502;-81
2023/10/18 07:54:16;;;;;;;5.43;3.45;;;;;;;;;;5066319;28;20033;-80
2023/10/18 07:56:54;;;;;;;4.63;3.45;;;;;;;;;;5060966;28;20045;-79
2023/10/18 07:59:30;;;;;;;7.60;3.83;;;;;;;;;;5060856;28;20438;-79
2023/10/18 08:04:44;;;;;;;4.75;3.60;;;;;;;;;;5067828;28;20037;-80
2023/10/18 08:07:20;;;;;;;5.38;3.65;;;;;;;;;;5063711;28;20037;-79
2023/10/18 08:09:51;;;;;;;5.05;3.42;;;;;;;;;;5067748;28;20409;-79
2023/10/18 08:14:48;;;;;;;5.95;3.38;;;;;;;;;;5082209;28;20458;-79
2023/10/18 08:17:30;;;;;;;5.00;3.25;;;;;;;;;;5073032;28;20036;-81
2023/10/18 08:22:45;;;;;;;7.10;3.13;;;;;;;;;;5071278;28;20048;-81
2023/10/18 08:25:24;;;;;;;6.80;3.60;;;;;;;;;;5068652;28;20433;-82
2023/10/18 08:27:53;;;;;;;5.80;3.53;;;;;;;;;;5076083;28;20039;-82
2023/10/18 08:33:05;;;;;;;5.95;3.20;;;;;;;;;;5075154;28;20127;-81
2023/10/18 08:35:31;;;;;;;5.28;3.28;;;;;;;;;;5065177;28;20033;-81
2023/10/18 08:38:01;;;;;;;6.88;3.17;;;;;;;;;;5067090;28;20029;-81
2023/10/18 08:40:27;;;;;;;6.78;3.15;;;;;;;;;;5059909;28;20093;-79
2023/10/18 08:43:06;;;;;;;4.55;3.08;;;;;;;;;;5064698;28;20560;-79
2023/10/18 08:45:46;;;;;;;4.72;2.95;;;;;;;;;;5075291;28;20028;-80
2023/10/18 08:48:17;;;;;;;7.28;3.40;;;;;;;;;;5066597;28;20079;-81
2023/10/18 08:50:43;;;;;;;4.90;3.15;;;;;;;;;;5059092;28;20101;-79
2023/10/18 08:53:10;;;;;;;6.82;3.25;;;;;;;;;;5067717;28;20048;-79
2023/10/18 08:55:44;;;;;;;6.18;3.45;;;;;;;;;;5067520;28;20029;-80
2023/10/18 08:58:19;;;;;;;7.22;3.50;;;;;;;;;;5065133;28;20489;-81
2023/10/18 09:03:22;;;;;;;5.63;3.03;;;;;;;;;;5069738;28;20036;-80
2023/10/18 09:05:52;;;;;;;4.50;3.17;;;;;;;;;;5063802;28;20033;-81
2023/10/18 09:08:19;;;;;;;5.25;3.10;;;;;;;;;;5067310;28;20032;-80
2023/10/18 09:10:54;;;;;;;5.28;2.75;;;;;;;;;;5071498;28;20040;-81
2023/10/18 09:15:49;;;;;;;5.40;3.00;;;;;;;;;;5064308;28;20032;-81
2023/10/18 09:18:16;;;;;;;6.32;2.90;;;;;;;;;;5063770;28;20056;-79
2023/10/18 09:20:41;;;;;;;4.30;2.90;;;;;;;;;;5060026;28;20475;-80
2023/10/18 09:23:24;;;;;;;4.78;2.65;;;;;;;;;;5062575;28;20083;-81
2023/10/18 09:25:50;;;;;;;3.90;3.00;;;;;;;;;;5060987;28;20067;-80
2023/10/18 09:28:30;;;;;;;5.95;3.35;;;;;;;;;;5064884;28;20047;-81
2023/10/18 09:31:01;;;;;;;5.07;3.35;;;;;;;;;;5074571;28;20044;-81
2023/10/18 09:33:31;;;;;;;4.53;2.95;;;;;;;;;;5063188;28;20044;-81
2023/10/18 09:36:01;;;;;;;4.95;3.10;;;;;;;;;;5064111;28;20037;-81
2023/10/18 09:38:41;;;;;;;5.10;3.20;;;;;;;;;;5062181;28;20079;-80
2023/10/18 09:41:07;;;;;;;6.88;3.17;;;;;;;;;;5068726;28;20115;-84
2023/10/18 09:43:38;;;;;;;5.32;2.90;;;;;;;;;;5088639;28;20063;-80
2023/10/18 09:46:08;;;;;;;6.65;3.10;;;;;;;;;;5069855;28;20037;-79
2023/10/18 09:48:38;;;;;;;5.35;2.90;;;;;;;;;;5064713;28;20045;-79
2023/10/18 09:51:08;;;;;;;4.72;2.83;;;;;;;;;;5060143;28;20033;-78
2023/10/18 09:53:48;;;;;;;5.35;2.95;;;;;;;;;;5060286;28;20032;-80
2023/10/18 09:56:17;;;;;;;4.65;2.75;;;;;;;;;;5084629;28;20122;-79
2023/10/18 09:58:48;;;;;;;3.70;2.80;;;;;;;;;;5064453;28;20044;-78
2023/10/18 10:01:25;;;;;;;5.55;2.80;;;;;;;;;;5060695;28;20037;-78
2023/10/18 10:03:52;;;;;;;4.40;2.70;;;;;;;;;;5058742;28;20510;-80
2023/10/18 10:06:25;;;;;;;5.60;2.85;;;;;;;;;;5082948;28;20047;-81
2023/10/18 10:11:37;;;;;;;6.32;2.80;;;;;;;;;;5059676;28;20391;-80
2023/10/18 10:14:07;;;;;;;3.60;2.60;;;;;;;;;;5056287;28;20037;-80
2023/10/18 10:16:34;;;;;;;4.80;2.70;;;;;;;;;;5070675;28;20067;-80
2023/10/18 10:19:04;;;;;;;6.80;2.53;;;;;;;;;;5066211;28;20024;-80
2023/10/18 10:21:33;;;;;;;5.47;2.70;;;;;;;;;;5060770;28;20038;-81
2023/10/18 10:24:06;;;;;;;5.38;2.70;;;;;;;;;;5059764;28;20039;-80
2023/10/18 10:26:35;;;;;;;4.15;2.70;;;;;;;;;;5070993;28;20036;-78
2023/10/18 10:31:55;;;;;;;6.80;2.55;;;;;;;;;;5070728;28;20037;-80
2023/10/18 10:34:28;;;;;;;6.32;2.90;;;;;;;;;;5075987;28;20055;-81
2023/10/18 10:37:08;;;;;;;3.83;2.83;;;;;;;;;;5076677;28;20040;-81
2023/10/18 10:39:44;;;;;;;4.78;2.83;;;;;;;;;;5072013;28;20060;-79
2023/10/18 10:42:41;;;;;;;3.92;2.45;;;;;;;;;;5069046;28;20040;-80
2023/10/18 10:45:23;;;;;;;9.13;3.28;;;;;;;;;;5075986;28;20041;-82
2023/10/18 10:47:50;;;;;;;4.50;2.90;;;;;;;;;;5072842;28;20032;-81
2023/10/18 10:50:42;;;;;;;5.15;2.97;;;;;;;;;;5064742;28;20065;-82
2023/10/18 10:53:08;;;;;;;5.25;2.78;;;;;;;;;;5069658;28;20020;-80
2023/10/18 10:55:34;;;;;;;6.40;3.10;;;;;;;;;;5074662;28;20120;-80
2023/10/18 10:58:29;;;;;;;5.50;2.90;;;;;;;;;;5074349;28;20072;-80
2023/10/18 11:00:59;;;;;;;4.88;2.70;;;;;;;;;;5069171;28;20102;-81
2023/10/18 11:03:43;;;;;;;6.07;2.50;;;;;;;;;;5061783;28;20029;-81
2023/10/18 11:06:10;;;;;;;5.10;2.80;;;;;;;;;;5069565;28;20092;-84
2023/10/18 11:08:36;;;;;;;3.70;2.40;;;;;;;;;;5052415;28;20036;-84
2023/10/18 11:11:06;;;;;;;4.43;2.67;;;;;;;;;;5064825;28;20089;-83
2023/10/18 11:13:36;;;;;;;4.38;2.95;;;;;;;;;;5058522;28;20047;-81
2023/10/18 11:16:03;;;;;;;3.70;2.60;;;;;;;;;;5068529;28;20040;-81
2023/10/18 11:18:34;;;;;;;3.75;2.58;;;;;;;;;;5070588;28;20040;-81
2023/10/18 11:21:19;;;;;;;4.88;2.80;;;;;;;;;;5065798;28;20033;-82
2023/10/18 11:24:01;;;;;;;6.93;3.10;;;;;;;;;;5063321;28;20094;-82
2023/10/18 11:26:27;;;;;;;5.05;2.90;;;;;;;;;;5055701;28;20083;-83
2023/10/18 11:28:58;;;;;;;4.28;3.20;;;;;;;;;;5062367;28;20115;-81
2023/10/18 11:31:26;;;;;;;6.60;3.20;;;;;;;;;;5065657;28;20044;-82
2023/10/18 11:34:07;;;;;;;5.18;3.40;;;;;;;;;;5061224;28;20032;-81
2023/10/18 11:36:34;;;;;;;7.45;3.38;;;;;;;;;;5066345;28;20086;-81
2023/10/18 11:39:07;;;;;;;6.65;3.83;;;;;;;;;;5071286;28;20032;-82
2023/10/18 11:41:37;;;;;;;5.22;3.63;;;;;;;;;;5066815;28;20036;-80
2023/10/18 11:44:06;;;;;;;8.82;3.75;;;;;;;;;;5063498;28;20402;-83
2023/10/18 11:46:58;;;;;;;6.55;3.50;;;;;;;;;;5061282;28;20040;-82
2023/10/18 11:49:35;;;;;;;5.20;3.40;;;;;;;;;;5067960;28;20078;-82
2023/10/18 11:52:01;;;;;;;4.63;3.25;;;;;;;;;;5070062;28;20124;-82
2023/10/18 11:54:34;;;;;;;6.65;3.30;;;;;;;;;;5062642;28;20155;-83
2023/10/18 11:57:07;;;;;;;6.45;3.30;;;;;;;;;;5059648;28;20403;-80
2023/10/18 11:59:54;;;;;;;6.30;3.42;;;;;;;;;;5072241;28;20586;-83
2023/10/18 12:02:21;;;;;;;6.85;3.75;;;;;;;;;;5059416;28;20033;-83
2023/10/18 12:04:47;;;;;;;7.63;3.53;;;;;;;;;;5062900;28;20044;-82
2023/10/18 12:07:14;;;;;;;5.75;3.72;;;;;;;;;;5070032;28;20108;-83
2023/10/18 12:09:51;;;;;;;8.52;3.72;;;;;;;;;;5068685;28;20490;-81
2023/10/18 12:12:20;;;;;;;5.95;3.75;;;;;;;;;;5070317;28;20047;-81
2023/10/18 12:14:47;;;;;;;9.40;3.55;;;;;;;;;;5064192;28;20116;-81
2023/10/18 12:17:13;;;;;;;6.50;3.53;;;;;;;;;;5062017;28;20376;-82
2023/10/18 12:19:40;;;;;;;5.03;3.55;;;;;;;;;;5067917;28;20227;-81
2023/10/18 12:22:09;;;;;;;8.48;3.70;;;;;;;;;;5066698;28;20474;-82
2023/10/18 12:24:35;;;;;;;5.20;3.72;;;;;;;;;;5072330;28;20033;-82
2023/10/18 12:27:33;;;;;;;5.53;3.72;;;;;;;;;;5067898;28;20033;-83
2023/10/18 12:30:09;;;;;;;10.00;4.30;;;;;;;;;;5073677;28;20185;-83
2023/10/18 12:32:42;;;;;;;5.60;4.25;;;;;;;;;;5065477;28;20119;-82
2023/10/18 12:35:13;;;;;;;7.33;4.10;;;;;;;;;;5065853;28;20028;-81
2023/10/18 12:37:40;;;;;;;7.43;4.30;;;;;;;;;;5067958;28;20044;-80
2023/10/18 12:40:27;;;;;;;5.72;3.60;;;;;;;;;;5071781;28;20099;-81
2023/10/18 12:43:00;;;;;;;6.38;4.18;;;;;;;;;;5074140;28;20127;-84
2023/10/18 12:45:29;;;;;;;6.50;3.92;;;;;;;;;;5072412;28;20037;-80
2023/10/18 12:47:55;;;;;;;10.88;4.13;;;;;;;;;;5065767;28;20388;-82
2023/10/18 12:50:26;;;;;;;6.70;4.20;;;;;;;;;;5056235;28;20020;-82
2023/10/18 12:52:53;;;;;;;9.23;4.30;;;;;;;;;;5068711;28;20046;-82
2023/10/18 12:55:36;;;;;;;7.00;4.60;;;;;;;;;;5067331;28;20462;-80
2023/10/18 12:58:06;;;;;;;7.28;4.10;;;;;;;;;;5078745;28;20482;-82
2023/10/18 13:00:44;;;;;;;6.25;4.30;;;;;;;;;;5059103;28;20037;-81
2023/10/18 13:05:43;;;;;;;7.30;4.00;;;;;;;;;;5080768;28;20119;-80
2023/10/18 13:08:17;;;;;;;8.30;4.28;;;;;;;;;;5062329;28;20036;-80
2023/10/18 13:10:48;;;;;;;7.15;4.25;;;;;;;;;;5057419;28;20094;-80
2023/10/18 13:13:18;;;;;;;7.05;4.18;;;;;;;;;;5061121;28;20097;-81
2023/10/18 13:15:46;;;;;;;8.57;4.20;;;;;;;;;;5066550;28;20020;-81
2023/10/18 13:18:14;;;;;;;7.00;3.92;;;;;;;;;;5070742;28;20036;-78
2023/10/18 13:20:44;;;;;;;6.68;4.28;;;;;;;;;;5063875;28;20025;-82
2023/10/18 13:23:12;;;;;;;8.02;3.80;;;;;;;;;;5061109;28;20474;-82
2023/10/18 13:25:49;;;;;;;6.15;4.13;;;;;;;;;;5069977;28;20028;-81
2023/10/18 13:28:24;;;;;;;5.35;3.70;;;;;;;;;;5063141;28;20516;-80
2023/10/18 13:30:51;;;;;;;7.63;4.35;;;;;;;;;;5071496;28;20032;-81
2023/10/18 13:33:18;;;;;;;6.00;3.92;;;;;;;;;;5073726;28;20054;-80
2023/10/18 13:35:49;;;;;;;6.47;4.10;;;;;;;;;;5071171;28;20032;-83
2023/10/18 13:38:16;;;;;;;8.43;4.53;;;;;;;;;;5062475;28;20116;-80
2023/10/18 13:40:43;;;;;;;7.20;4.43;;;;;;;;;;5066416;28;20036;-80
2023/10/18 13:43:09;;;;;;;10.00;4.57;;;;;;;;;;5071844;28;20029;-78
2023/10/18 13:45:37;;;;;;;5.40;3.92;;;;;;;;;;5071190;28;20036;-79
2023/10/18 13:48:02;;;;;;;6.45;3.70;;;;;;;;;;5067222;28;20033;-81
2023/10/18 13:50:33;;;;;;;7.20;4.05;;;;;;;;;;5066488;28;20556;-80
2023/10/18 13:52:58;;;;;;;6.65;4.35;;;;;;;;;;5057635;28;20078;-81
2023/10/18 13:55:25;;;;;;;4.82;3.55;;;;;;;;;;5065839;28;20040;-81
2023/10/18 13:57:51;;;;;;;6.28;3.90;;;;;;;;;;5067207;28;20039;-82
2023/10/18 14:00:21;;;;;;;5.30;3.75;;;;;;;;;;5063809;28;20040;-79
2023/10/18 14:02:47;;;;;;;7.43;3.65;;;;;;;;;;5058016;28;20519;-80
2023/10/18 14:05:13;;;;;;;7.38;4.07;;;;;;;;;;5059711;28;20123;-80
2023/10/18 14:07:38;;;;;;;5.30;3.55;;;;;;;;;;5068811;28;20127;-79
2023/10/18 14:10:19;;;;;;;6.03;3.90;;;;;;;;;;5064384;28;20089;-79
2023/10/18 14:12:46;;;;;;;6.78;3.60;;;;;;;;;;5064616;28;20092;-80
2023/10/18 14:15:16;;;;;;;8.90;4.30;;;;;;;;;;5056231;28;20073;-81
2023/10/18 14:17:46;;;;;;;7.55;3.90;;;;;;;;;;5069218;28;20386;-81
2023/10/18 14:20:12;;;;;;;5.15;3.40;;;;;;;;;;5060614;28;20040;-81
2023/10/18 14:22:38;;;;;;;7.55;3.70;;;;;;;;;;5058867;28;20079;-80
2023/10/18 14:25:07;;;;;;;7.18;3.63;;;;;;;;;;5070340;28;20544;-80
2023/10/18 14:27:40;;;;;;;5.60;3.80;;;;;;;;;;5068358;28;20095;-82
2023/10/18 14:30:10;;;;;;;6.80;3.80;;;;;;;;;;5065927;28;20123;-83
2023/10/18 14:32:35;;;;;;;5.50;3.42;;;;;;;;;;5061488;28;20072;-81
2023/10/18 14:35:01;;;;;;;7.70;4.10;;;;;;;;;;5057202;28;20056;-81
2023/10/18 14:37:26;;;;;;;11.38;4.20;;;;;;;;;;5064308;28;20089;-81
2023/10/18 14:39:55;;;;;;;7.47;5.03;;;;;;;;;;5066314;28;20029;-81
2023/10/18 14:42:22;;;;;;;8.98;5.43;;;;;;;;;;5063605;28;20032;-80
2023/10/18 14:44:47;;;;;;;8.15;4.55;;;;;;;;;;5058060;28;20028;-79
2023/10/18 14:47:13;;;;;;;8.13;4.60;;;;;;;;;;5060251;28;20402;-81
2023/10/18 14:49:39;;;;;;;9.60;5.65;;;;;;;;;;5070114;28;20029;-81
2023/10/18 14:52:11;;;;;;;8.00;5.93;;;;;;;;;;5062882;28;20111;-80
2023/10/18 14:54:41;;;;;;;8.63;5.40;;;;;;;;;;5085955;22;20102;-79
2023/10/18 14:57:07;;;;;;;8.10;5.32;;;;;;;;;;5029743;28;20034;-82
2023/10/18 14:59:33;;;;;;;8.13;5.70;;;;;;;;;;5025317;28;20025;-81
2023/10/18 15:01:59;;;;;;;11.07;6.38;;;;;;;;;;5042903;28;20578;-82
2023/10/18 15:04:24;;;;;;;7.80;5.07;;;;;;;;;;5037396;28;20117;-82
2023/10/18 15:06:53;;;;;;;9.13;5.40;;;;;;;;;;5029708;28;20034;-81
2023/10/18 15:09:20;;;;;;;8.43;5.00;;;;;;;;;;5029876;28;20048;-81
2023/10/18 15:11:51;;;;;;;6.57;5.05;;;;;;;;;;5025009;28;20038;-81
2023/10/18 15:14:19;;;;;;;9.50;6.40;;;;;;;;;;5022576;28;20475;-81
2023/10/18 15:16:45;;;;;;;11.02;6.68;;;;;;;;;;5021018;28;20033;-79
2023/10/18 15:19:14;;;;;;;10.07;5.35;;;;;;;;;;5025691;28;20091;-79
2023/10/18 15:21:41;;;;;;;9.45;4.60;;;;;;;;;;5032183;28;20037;-79
2023/10/18 15:24:07;;;;;;;6.50;4.50;;;;;;;;;;5020613;28;20096;-78
2023/10/18 15:26:38;;;;;;;7.25;4.95;;;;;;;;;;5020932;28;20125;-80
2023/10/18 15:29:08;;;;;;;9.18;5.32;;;;;;;;;;5024111;28;20124;-79
2023/10/18 15:31:36;;;;;;;8.23;6.20;;;;;;;;;;5019360;28;20065;-80
2023/10/18 15:34:01;;;;;;;8.90;6.72;;;;;;;;;;5015894;28;20495;-81
2023/10/18 15:36:28;;;;;;;8.63;5.20;;;;;;;;;;5021957;28;20034;-81
2023/10/18 15:38:55;;;;;;;9.18;5.82;;;;;;;;;;5023324;28;20103;-78
2023/10/18 15:41:21;;;;;;;7.30;5.03;;;;;;;;;;5032840;28;20033;-80
2023/10/18 15:43:49;;;;;;;11.75;6.85;;;;;;;;;;5031880;28;20044;-78
2023/10/18 15:46:19;;;;;;;17.73;6.80;;;;;;;;;;5021919;28;20038;-80
2023/10/18 15:48:46;;;;;;;14.40;9.32;;;;;;;;;;5016571;28;20400;-79
2023/10/18 15:51:12;;;;;;;10.85;6.50;;;;;;;;;;5029099;28;20095;-79
2023/10/18 15:53:37;;;;;;;7.57;5.10;;;;;;;;;;5027303;28;20018;-78
2023/10/18 15:56:04;;;;;;;9.05;5.28;;;;;;;;;;5021453;28;20079;-79
2023/10/18 15:58:30;;;;;;;6.47;4.30;;;;;;;;;;5031225;28;20034;-78